Time;durP1;ratioP1;P1;durP2;ratioP2;P2;SDS_P1;SDS_P2;PMS_P1;PMS_P2;Temp;Humidity;BMP_temperature;BMP_pressure;BME280_temperature;BME280_humidity;BME280_pressure;Samples;Min_cycle;Max_cycle;Signal;HPM_P1;HPM_P2
2022/09/01 00:02:19;;;;;;;20.70;17.25;;;;;;;20.30;66.59;95047.25;5101476;27;20160;-86
2022/09/01 00:04:46;;;;;;;22.83;16.92;;;;;;;20.50;66.82;95069.84;5102187;28;20163;-86
2022/09/01 00:07:12;;;;;;;25.02;17.05;;;;;;;20.49;67.04;95062.88;5119967;27;20039;-86
2022/09/01 00:09:38;;;;;;;22.33;17.02;;;;;;;20.06;66.99;95009.59;5100910;28;20090;-86
2022/09/01 00:12:06;;;;;;;22.60;16.40;;;;;;;20.45;66.91;95061.97;5101221;28;20071;-86
2022/09/01 00:14:35;;;;;;;25.33;16.70;;;;;;;19.98;67.07;94992.44;5101764;28;20039;-86
2022/09/01 00:17:05;;;;;;;26.73;16.80;;;;;;;20.37;67.34;95053.69;5119843;28;20039;-87
2022/09/01 00:19:32;;;;;;;24.00;16.30;;;;;;;20.38;67.34;95057.16;5120203;28;20067;-86
2022/09/01 00:21:59;;;;;;;22.80;16.33;;;;;;;20.36;67.28;95054.84;5100912;28;20031;-86
2022/09/01 00:24:25;;;;;;;22.63;16.35;;;;;;;20.34;67.21;95045.50;5102069;28;20035;-87
2022/09/01 00:26:51;;;;;;;26.08;15.95;;;;;;;19.79;67.16;94971.47;5101428;28;20039;-86
2022/09/01 00:29:17;;;;;;;20.55;16.48;;;;;;;19.80;67.02;94975.72;5101474;28;20039;-86
2022/09/01 00:31:43;;;;;;;25.40;16.27;;;;;;;19.36;66.89;94938.91;5101904;28;20035;-86
2022/09/01 00:34:09;;;;;;;23.10;16.58;;;;;;;20.04;67.13;95031.47;5101594;28;20447;-86
2022/09/01 00:36:35;;;;;;;22.75;16.63;;;;;;;20.20;67.09;95059.28;5120227;28;20034;-86
2022/09/01 00:39:01;;;;;;;24.13;15.90;;;;;;;20.09;67.01;95039.31;5120923;28;20046;-86
2022/09/01 00:41:30;;;;;;;23.67;17.58;;;;;;;20.12;67.23;95068.25;5102304;28;20039;-86
2022/09/01 00:43:59;;;;;;;20.83;14.57;;;;;;;19.77;67.50;95037.50;5101809;28;20488;-86
2022/09/01 00:46:29;;;;;;;24.58;15.70;;;;;;;19.65;68.05;95046.34;5121408;28;20043;-86
2022/09/01 00:48:59;;;;;;;19.83;14.93;;;;;;;19.55;67.82;95041.38;5101945;28;20354;-86
2022/09/01 00:51:27;;;;;;;25.77;13.93;;;;;;;19.34;67.79;95016.44;5101627;28;20492;-86
2022/09/01 00:53:54;;;;;;;17.92;13.60;;;;;;;17.86;67.79;94800.53;5101760;28;20481;-86
2022/09/01 00:56:21;;;;;;;26.40;14.38;;;;;;;19.19;67.64;94985.59;5120195;28;20034;-86
2022/09/01 00:58:47;;;;;;;18.02;13.95;;;;;;;19.39;67.48;95032.34;5119976;28;20277;-86
2022/09/01 01:01:13;;;;;;;20.33;13.73;;;;;;;19.19;67.28;94977.53;5137413;27;20786;-86
2022/09/01 01:03:41;;;;;;;22.83;14.60;;;;;;;18.52;68.71;94952.50;5124011;27;20039;-86
2022/09/01 01:06:07;;;;;;;23.55;14.40;;;;;;;19.48;68.30;95076.88;5124623;27;20070;-86
2022/09/01 01:08:37;;;;;;;20.08;13.45;;;;;;;19.35;68.18;95042.19;5105117;27;20027;-85
2022/09/01 01:11:17;;;;;;;25.00;15.30;;;;;;;18.89;68.01;94988.41;5105402;27;20038;-85
2022/09/01 01:13:55;;;;;;;28.88;14.90;;;;;;;19.72;67.71;95080.75;5123395;27;20031;-86
2022/09/01 01:16:23;;;;;;;26.20;14.90;;;;;;;19.75;67.51;95082.81;5105323;27;20034;-86
2022/09/01 01:18:49;;;;;;;20.00;14.13;;;;;;;19.34;67.11;95013.75;5104506;27;20042;-86
2022/09/01 01:24:25;;;;;;;24.20;14.52;;;;;;;19.89;67.02;95077.88;5124141;27;20448;-86
2022/09/01 01:26:52;;;;;;;17.33;14.07;;;;;;;19.85;67.06;95076.97;5104719;27;20054;-86
2022/09/01 01:29:18;;;;;;;22.52;15.52;;;;;;;19.33;67.05;95002.19;5104865;27;20121;-86
2022/09/01 01:31:48;;;;;;;23.35;15.00;;;;;;;19.71;67.15;95063.84;5123339;27;20568;-85
2022/09/01 01:34:16;;;;;;;24.67;15.65;;;;;;;19.48;66.72;95028.47;5104613;27;20050;-87
2022/09/01 01:36:41;;;;;;;20.13;15.15;;;;;;;19.54;67.21;95054.03;5123241;27;20035;-85
2022/09/01 01:39:18;;;;;;;20.00;15.38;;;;;;;19.72;67.36;95081.56;5123568;27;20497;-86
2022/09/01 01:41:47;;;;;;;19.38;15.25;;;;;;;19.47;67.64;95053.00;5123928;27;20100;-86
2022/09/01 01:44:15;;;;;;;24.77;15.43;;;;;;;19.65;67.64;95079.41;5103853;27;20042;-86
2022/09/01 01:46:44;;;;;;;22.67;14.77;;;;;;;19.00;67.58;94991.44;5103560;27;20042;-86
2022/09/01 01:49:17;;;;;;;18.70;15.60;;;;;;;18.94;68.07;94992.78;5103658;27;20081;-85
2022/09/01 01:51:44;;;;;;;24.35;16.05;;;;;;;18.71;68.34;94967.38;5103753;27;20078;-85
2022/09/01 01:54:09;;;;;;;22.08;15.48;;;;;;;19.13;68.58;95046.84;5123551;27;20584;-86
2022/09/01 01:56:38;;;;;;;19.90;15.55;;;;;;;18.88;68.20;95015.59;5122538;27;20104;-85
2022/09/01 01:59:06;;;;;;;20.52;14.75;;;;;;;19.12;68.13;95047.94;5103836;27;20042;-86
2022/09/01 02:01:31;;;;;;;20.42;16.20;;;;;;;19.45;68.23;95107.13;5107109;28;20133;-87
2022/09/01 02:03:59;;;;;;;23.25;15.77;;;;;;;18.94;68.44;95019.66;5107558;28;20040;-86
2022/09/01 02:06:26;;;;;;;19.58;15.50;;;;;;;19.38;68.48;95095.31;5099378;28;20036;-86
2022/09/01 02:08:57;;;;;;;22.45;16.20;;;;;;;18.58;68.85;94981.88;5101944;28;20065;-86
2022/09/01 02:11:24;;;;;;;22.40;15.60;;;;;;;18.72;68.83;95009.25;5099744;28;20131;-86
2022/09/01 02:13:55;;;;;;;20.02;16.38;;;;;;;18.95;69.02;95058.84;5102124;28;20499;-86
2022/09/01 02:16:21;;;;;;;22.42;15.50;;;;;;;18.45;68.95;94981.78;5102251;28;20436;-86
2022/09/01 02:18:47;;;;;;;24.33;17.15;;;;;;;19.39;68.97;95108.41;5102173;28;20066;-86
2022/09/01 02:21:18;;;;;;;23.40;17.08;;;;;;;18.55;68.53;94974.44;5101800;28;20070;-86
2022/09/01 02:23:59;;;;;;;21.13;17.75;;;;;;;19.35;69.01;95109.44;5099955;28;20489;-86
2022/09/01 02:26:31;;;;;;;28.95;16.60;;;;;;;19.20;68.60;95073.97;5099661;28;20124;-86
2022/09/01 02:29:03;;;;;;;22.55;16.08;;;;;;;19.36;68.54;95111.00;5100160;28;20512;-86
2022/09/01 02:31:34;;;;;;;26.08;16.55;;;;;;;19.09;68.47;95072.78;5099734;28;20098;-86
2022/09/01 02:33:59;;;;;;;26.40;16.30;;;;;;;19.30;68.62;95105.03;5100079;28;20039;-86
2022/09/01 02:36:26;;;;;;;24.85;16.50;;;;;;;19.31;68.50;95101.22;5100655;28;20513;-86
2022/09/01 02:38:53;;;;;;;23.90;16.67;;;;;;;19.08;68.30;95067.75;5099804;28;20434;-86
2022/09/01 02:41:21;;;;;;;24.52;16.33;;;;;;;18.91;68.21;95057.16;5100151;28;20058;-86
2022/09/01 02:43:47;;;;;;;24.35;17.55;;;;;;;18.64;68.18;95010.88;5100955;28;20474;-86
2022/09/01 02:46:14;;;;;;;21.27;15.20;;;;;;;18.64;68.18;95016.25;5098919;28;20035;-86
2022/09/01 02:48:44;;;;;;;27.23;15.70;;;;;;;18.99;68.01;95053.59;5098920;28;20046;-86
2022/09/01 02:51:15;;;;;;;19.63;16.27;;;;;;;19.13;67.97;95079.09;5101631;28;20040;-86
2022/09/01 02:53:43;;;;;;;24.92;15.30;;;;;;;18.87;67.71;95025.56;5101357;28;20593;-86
2022/09/01 02:56:14;;;;;;;21.00;16.92;;;;;;;18.84;67.74;95030.81;5098970;28;20524;-86
2022/09/01 02:58:47;;;;;;;23.45;16.45;;;;;;;19.13;68.00;95089.06;5099276;28;20044;-87
2022/09/01 03:01:23;;;;;;;25.00;15.70;;;;;;;19.15;68.07;95076.06;5099304;28;20115;-86
2022/09/01 03:03:51;;;;;;;27.77;15.55;;;;;;;16.76;68.00;94726.66;5099767;28;20126;-87
2022/09/01 03:06:18;;;;;;;18.90;14.45;;;;;;;19.09;68.13;95077.38;5098188;28;20039;-86
2022/09/01 03:08:44;;;;;;;23.85;16.80;;;;;;;17.86;68.18;94899.78;5098992;28;20057;-86
2022/09/01 03:11:10;;;;;;;21.95;16.65;;;;;;;18.34;68.05;94967.19;5098995;28;20126;-86
2022/09/01 03:13:37;;;;;;;24.95;16.75;;;;;;;18.70;68.14;95043.69;5098100;28;20563;-86
2022/09/01 03:16:05;;;;;;;23.90;16.52;;;;;;;18.79;68.12;95047.91;5098400;28;20039;-86
2022/09/01 03:18:30;;;;;;;21.38;15.27;;;;;;;18.40;67.89;94981.97;5100239;28;20386;-87
2022/09/01 03:20:56;;;;;;;27.40;18.15;;;;;;;18.81;67.92;95077.91;5098449;28;20282;-86
2022/09/01 03:23:24;;;;;;;28.77;17.50;;;;;;;17.24;68.14;94826.13;5098408;28;20039;-86
2022/09/01 03:25:49;;;;;;;20.98;16.20;;;;;;;18.32;68.07;94985.50;5098993;28;20051;-86
2022/09/01 03:28:15;;;;;;;30.98;17.80;;;;;;;18.50;68.04;95029.94;5099175;28;20527;-86
2022/09/01 03:30:47;;;;;;;31.73;16.98;;;;;;;18.91;68.25;95092.09;5098962;28;20040;-86
2022/09/01 03:33:15;;;;;;;24.77;17.05;;;;;;;18.54;67.91;95026.59;5100273;28;20047;-86
2022/09/01 03:35:42;;;;;;;31.50;17.38;;;;;;;18.64;67.61;95026.22;5098594;28;20501;-86
2022/09/01 03:38:09;;;;;;;33.70;19.17;;;;;;;18.83;68.86;95085.66;5098842;28;20162;-86
2022/09/01 03:40:35;;;;;;;27.42;17.52;;;;;;;18.77;69.48;95086.94;5100197;28;20475;-86
2022/09/01 03:43:12;;;;;;;30.95;20.25;;;;;;;18.61;70.16;95097.50;5098716;28;20104;-86
2022/09/01 03:45:38;;;;;;;36.65;20.90;;;;;;;18.82;69.77;95097.53;5100233;28;20134;-86
2022/09/01 03:48:07;;;;;;;32.83;21.20;;;;;;;18.48;70.25;95066.25;5098656;28;20066;-86
2022/09/01 03:50:38;;;;;;;34.05;21.85;;;;;;;18.72;70.28;95097.91;5099453;28;20039;-86
2022/09/01 03:53:04;;;;;;;43.50;23.03;;;;;;;18.29;70.23;95034.50;5097064;28;20027;-86
2022/09/01 03:55:33;;;;;;;43.92;24.23;;;;;;;18.84;69.85;95095.28;5099388;28;20456;-86
2022/09/01 03:58:05;;;;;;;38.22;25.45;;;;;;;18.09;69.95;95005.69;5098106;28;20067;-86
2022/09/01 04:00:36;;;;;;;45.65;26.58;;;;;;;18.60;69.99;95087.88;5098455;28;20526;-86
2022/09/01 04:03:06;;;;;;;50.10;29.15;;;;;;;18.17;70.93;95038.97;5101440;27;20047;-86
2022/09/01 04:05:36;;;;;;;49.78;27.60;;;;;;;18.63;70.82;95102.53;5100961;27;20031;-86
2022/09/01 04:08:04;;;;;;;48.67;28.08;;;;;;;18.17;72.36;95104.16;5102000;27;20104;-86
2022/09/01 04:10:32;;;;;;;71.45;34.40;;;;;;;18.12;72.65;95099.78;5119928;27;20045;-86
2022/09/01 04:12:58;;;;;;;143.05;32.58;;;;;;;17.28;72.73;94973.69;5120375;27;20032;-86
2022/09/01 04:15:25;;;;;;;61.15;31.60;;;;;;;17.58;72.94;95009.38;5101620;28;20046;-86
2022/09/01 04:18:08;;;;;;;85.18;33.92;;;;;;;18.26;72.85;95096.06;5101061;28;20027;-85
2022/09/01 04:20:38;;;;;;;70.03;34.00;;;;;;;15.96;73.64;94758.50;5101269;28;20441;-86
2022/09/01 04:23:09;;;;;;;53.60;33.58;;;;;;;17.82;73.45;95031.09;5120232;28;20027;-85
2022/09/01 04:25:37;;;;;;;66.70;32.22;;;;;;;17.77;73.37;95023.25;5101994;28;20039;-85
2022/09/01 04:28:13;;;;;;;55.78;32.80;;;;;;;17.94;72.91;95027.72;5101654;28;20042;-85
2022/09/01 04:30:41;;;;;;;58.83;33.75;;;;;;;18.07;74.62;95091.13;5101945;28;20049;-85
2022/09/01 04:33:07;;;;;;;63.63;31.25;;;;;;;17.90;73.65;95043.69;5104376;28;20553;-85
2022/09/01 04:35:39;;;;;;;59.95;31.98;;;;;;;18.10;73.38;95059.06;5106215;27;20039;-85
2022/09/01 04:38:07;;;;;;;57.75;31.08;;;;;;;18.12;72.81;95039.94;5106085;27;20035;-85
2022/09/01 04:40:41;;;;;;;47.90;29.92;;;;;;;18.07;72.32;95024.03;5124845;27;20035;-85
2022/09/01 04:43:07;;;;;;;57.40;32.30;;;;;;;17.90;71.97;94992.72;5105303;27;20087;-85
2022/09/01 04:45:35;;;;;;;52.05;31.08;;;;;;;18.12;73.26;95059.53;5105881;27;20085;-85
2022/09/01 04:48:02;;;;;;;64.70;31.98;;;;;;;18.39;73.04;95122.69;5124694;27;20027;-85
2022/09/01 04:50:29;;;;;;;49.83;29.10;;;;;;;18.62;72.35;95092.91;5103813;27;20485;-85
2022/09/01 04:52:57;;;;;;;59.90;32.22;;;;;;;18.32;72.23;95043.78;5107696;27;20030;-85
2022/09/01 04:55:23;;;;;;;60.28;30.77;;;;;;;17.99;71.96;94995.34;5124517;27;20469;-85
2022/09/01 04:57:49;;;;;;;55.42;33.47;;;;;;;17.60;72.77;94958.91;5125648;27;20034;-85
2022/09/01 05:00:23;;;;;;;60.15;31.77;;;;;;;18.09;72.32;95005.69;5123942;27;20061;-86
2022/09/01 05:02:52;;;;;;;46.45;30.63;;;;;;;18.75;71.98;95087.28;5083220;28;20056;-86
2022/09/01 05:05:22;;;;;;;49.72;29.45;;;;;;;18.81;71.58;95095.94;5100099;27;20136;-85
2022/09/01 05:07:51;;;;;;;45.58;30.92;;;;;;;18.91;71.41;95092.09;5092386;27;20031;-86
2022/09/01 05:10:18;;;;;;;55.17;29.60;;;;;;;18.61;71.26;95051.84;5094744;27;20031;-85
2022/09/01 05:12:44;;;;;;;48.35;29.95;;;;;;;18.92;71.00;95096.34;5102449;27;20077;-86
2022/09/01 05:15:12;;;;;;;45.72;29.40;;;;;;;18.66;70.47;95056.22;5109912;27;20118;-86
2022/09/01 05:17:38;;;;;;;39.10;27.48;;;;;;;18.49;70.08;95031.03;5090897;27;20881;-85
2022/09/01 05:20:05;;;;;;;45.80;28.70;;;;;;;18.01;70.22;94945.59;5113780;27;20469;-85
2022/09/01 05:22:31;;;;;;;46.70;29.17;;;;;;;18.55;71.26;95045.03;5125929;27;20927;-85
2022/09/01 05:25:19;;;;;;;51.25;31.38;;;;;;;18.93;71.22;95096.00;5105050;27;20030;-85
2022/09/01 05:27:48;;;;;;;52.80;31.88;;;;;;;18.59;70.77;95027.22;5095044;27;20036;-85
2022/09/01 05:30:15;;;;;;;51.95;30.75;;;;;;;18.49;70.51;95000.72;5089439;27;20067;-85
2022/09/01 05:32:42;;;;;;;53.65;30.13;;;;;;;19.21;70.28;95088.19;5091993;27;20362;-85
2022/09/01 05:35:08;;;;;;;53.20;30.95;;;;;;;19.38;69.62;95085.34;5087989;27;20038;-85
2022/09/01 05:37:37;;;;;;;55.78;30.40;;;;;;;19.35;69.36;95069.88;5104811;27;20037;-85
2022/09/01 05:40:14;;;;;;;47.75;30.50;;;;;;;19.56;69.12;95076.03;5099659;27;20073;-85
2022/09/01 05:42:43;;;;;;;47.55;29.15;;;;;;;19.47;68.97;95047.63;5101506;27;20103;-86
2022/09/01 05:45:10;;;;;;;45.45;29.88;;;;;;;19.71;68.65;95081.88;5121506;27;20035;-85
2022/09/01 05:47:37;;;;;;;50.65;30.65;;;;;;;19.74;68.26;95090.09;5098275;27;20152;-85
2022/09/01 05:50:04;;;;;;;63.97;31.33;;;;;;;19.29;67.87;95012.06;5105114;27;20032;-85
2022/09/01 05:52:37;;;;;;;54.72;32.00;;;;;;;18.94;67.65;94955.16;5102924;27;20037;-85
2022/09/01 05:55:03;;;;;;;54.90;32.90;;;;;;;19.81;67.71;95070.69;5106163;27;20031;-85
2022/09/01 05:57:34;;;;;;;65.45;33.78;;;;;;;19.16;68.01;94995.09;5118493;27;20092;-85
2022/09/01 06:00:00;;;;;;;64.22;33.90;;;;;;;19.25;67.89;94973.50;5135726;27;20057;-85
2022/09/01 06:02:28;;;;;;;61.40;34.03;;;;;;;19.83;68.10;95081.91;5099857;27;20411;-85
2022/09/01 06:04:55;;;;;;;62.17;33.63;;;;;;;19.26;67.61;94969.69;5100981;27;20372;-85
2022/09/01 06:07:22;;;;;;;63.15;33.97;;;;;;;19.85;67.08;95052.75;5097326;27;20031;-85
2022/09/01 06:09:48;;;;;;;64.43;33.58;;;;;;;20.19;67.09;95067.69;5107492;27;20117;-85
2022/09/01 06:12:19;;;;;;;56.95;34.13;;;;;;;19.31;67.11;94945.28;5102830;27;20027;-85
2022/09/01 06:14:49;;;;;;;60.70;32.20;;;;;;;20.20;66.89;95071.97;5107284;27;20143;-85
2022/09/01 06:17:18;;;;;;;59.33;33.97;;;;;;;20.15;66.95;95078.34;5110698;27;20050;-84
2022/09/01 06:19:45;;;;;;;58.83;33.90;;;;;;;19.79;66.92;95009.13;5131448;27;20134;-85
2022/09/01 06:22:11;;;;;;;59.33;32.97;;;;;;;19.70;66.49;94994.22;5096584;27;20134;-85
2022/09/01 06:24:38;;;;;;;58.03;31.55;;;;;;;20.26;66.06;95076.78;5103121;27;20091;-84
2022/09/01 06:27:07;;;;;;;58.72;31.30;;;;;;;19.82;65.70;95010.38;5136909;27;20483;-85
2022/09/01 06:29:33;;;;;;;65.70;33.05;;;;;;;19.65;65.97;94987.94;5099190;27;20045;-85
2022/09/01 06:32:01;;;;;;;57.15;31.85;;;;;;;20.36;65.63;95080.97;5099391;27;20023;-85
2022/09/01 06:34:27;;;;;;;65.65;33.85;;;;;;;20.22;65.90;95081.25;5117376;27;20035;-85
2022/09/01 06:36:52;;;;;;;64.25;33.15;;;;;;;20.00;66.11;95058.25;5092908;27;20135;-86
2022/09/01 06:39:21;;;;;;;54.63;32.47;;;;;;;19.96;66.41;95052.00;5111264;27;20034;-86
2022/09/01 06:41:51;;;;;;;55.78;32.88;;;;;;;19.80;66.89;95055.66;5116643;27;20417;-86
2022/09/01 06:44:23;;;;;;;52.88;32.05;;;;;;;20.08;66.65;95077.31;5115597;27;20433;-86
2022/09/01 06:46:52;;;;;;;56.17;30.65;;;;;;;19.34;66.58;94939.25;5125694;27;20044;-86
2022/09/01 06:49:20;;;;;;;58.13;31.20;;;;;;;18.36;65.94;94777.03;5123960;27;20095;-85
2022/09/01 06:51:50;;;;;;;50.90;29.80;;;;;;;20.15;66.31;95074.88;5113035;27;20031;-86
2022/09/01 06:54:18;;;;;;;56.25;31.08;;;;;;;19.43;66.79;94976.78;5114727;27;20030;-86
2022/09/01 06:56:44;;;;;;;63.90;34.28;;;;;;;20.12;66.80;95064.78;5093666;27;20485;-86
2022/09/01 06:59:14;;;;;;;49.88;30.23;;;;;;;19.87;66.69;95040.53;5130172;27;20042;-86
2022/09/01 07:01:40;;;;;;;52.60;31.13;;;;;;;19.90;66.47;95025.63;5098196;27;20062;-86
2022/09/01 07:04:06;;;;;;;59.63;32.08;;;;;;;19.76;66.32;95007.09;5117439;27;20091;-85
2022/09/01 07:06:31;;;;;;;50.33;30.92;;;;;;;20.28;66.27;95088.00;5107089;27;20050;-86
2022/09/01 07:09:00;;;;;;;49.22;30.48;;;;;;;19.77;66.14;94997.91;5120966;27;20027;-86
2022/09/01 07:11:29;;;;;;;54.03;31.80;;;;;;;20.29;66.64;95069.94;5117268;27;20516;-86
2022/09/01 07:14:00;;;;;;;54.95;30.63;;;;;;;20.29;66.35;95068.03;5101735;27;20026;-86
2022/09/01 07:16:27;;;;;;;49.87;31.07;;;;;;;20.27;66.78;95072.97;5107828;27;20185;-86
2022/09/01 07:18:56;;;;;;;44.88;29.10;;;;;;;19.97;66.57;95017.78;5137574;27;20272;-86
2022/09/01 07:21:22;;;;;;;41.83;28.92;;;;;;;18.89;66.63;94859.44;5104010;27;20038;-86
2022/09/01 07:23:48;;;;;;;47.10;30.33;;;;;;;19.98;66.16;94987.06;5111885;27;20036;-86
2022/09/01 07:26:18;;;;;;;41.58;28.63;;;;;;;20.33;65.71;95046.59;5131619;27;20041;-86
2022/09/01 07:28:45;;;;;;;48.90;30.30;;;;;;;20.58;65.91;95061.66;5119866;27;20058;-85
2022/09/01 07:31:33;;;;;;;51.85;30.77;;;;;;;19.75;65.76;94932.91;5114151;27;20038;-85
2022/09/01 07:34:03;;;;;;;48.00;29.95;;;;;;;20.23;65.62;94990.50;5094630;27;20209;-85
2022/09/01 07:36:29;;;;;;;51.25;32.40;;;;;;;20.74;65.34;95064.44;5107477;27;20031;-85
2022/09/01 07:38:54;;;;;;;51.38;31.77;;;;;;;20.00;65.20;94952.50;5100496;27;20108;-85
2022/09/01 07:41:22;;;;;;;51.05;33.60;;;;;;;19.89;65.52;94978.31;5131142;27;20113;-85
2022/09/01 07:43:51;;;;;;;52.85;33.38;;;;;;;19.83;65.73;94950.06;5117200;27;20039;-85
2022/09/01 07:46:19;;;;;;;49.00;32.83;;;;;;;20.14;66.13;95006.00;5119995;27;20040;-85
2022/09/01 07:48:47;;;;;;;57.90;33.63;;;;;;;20.54;65.84;95062.66;5121298;27;20039;-85
2022/09/01 07:51:17;;;;;;;45.25;29.85;;;;;;;20.68;65.21;95057.69;5114648;27;20475;-85
2022/09/01 07:53:44;;;;;;;55.38;34.05;;;;;;;20.70;65.34;95055.44;5109917;27;20560;-85
2022/09/01 07:56:10;;;;;;;51.85;31.95;;;;;;;20.63;65.44;95050.63;5128887;27;20035;-85
2022/09/01 07:58:38;;;;;;;56.22;35.20;;;;;;;19.52;65.15;94861.84;5106697;27;20139;-85
2022/09/01 08:01:08;;;;;;;66.72;37.75;;;;;;;20.76;65.28;95059.47;5098255;27;20428;-85
2022/09/01 08:03:34;;;;;;;56.25;37.75;;;;;;;19.15;66.06;94842.97;5096746;27;20031;-85
2022/09/01 08:06:09;;;;;;;59.60;37.35;;;;;;;20.66;66.00;95063.44;5103907;27;20047;-85
2022/09/01 08:08:36;;;;;;;70.05;38.97;;;;;;;20.61;66.04;95044.78;5118064;27;20110;-85
2022/09/01 08:11:02;;;;;;;66.22;39.35;;;;;;;18.17;66.16;94706.97;5098259;27;20051;-85
2022/09/01 08:13:27;;;;;;;64.95;40.38;;;;;;;20.34;65.85;95013.97;5111136;27;20031;-85
2022/09/01 08:15:53;;;;;;;64.53;39.20;;;;;;;20.53;65.74;95009.88;5099413;27;20109;-85
2022/09/01 08:18:19;;;;;;;59.38;37.33;;;;;;;20.83;65.23;95018.47;5097780;28;20027;-85
2022/09/01 08:20:46;;;;;;;64.55;37.17;;;;;;;21.15;64.61;95042.50;5104249;27;20535;-85
2022/09/01 08:23:18;;;;;;;57.08;35.13;;;;;;;20.64;64.45;94947.13;5098743;27;20031;-85
2022/09/01 08:25:46;;;;;;;53.33;35.08;;;;;;;20.85;63.91;94978.47;5089565;27;20057;-85
2022/09/01 08:28:13;;;;;;;63.13;35.85;;;;;;;21.45;63.66;95052.94;5104674;27;20749;-85
2022/09/01 08:30:40;;;;;;;53.78;36.63;;;;;;;21.35;63.88;95046.16;5096810;28;20495;-86
2022/09/01 08:33:06;;;;;;;67.18;35.70;;;;;;;21.32;63.79;95035.25;5098029;28;20019;-84
2022/09/01 08:35:31;;;;;;;57.65;33.80;;;;;;;20.87;63.64;94958.16;5099850;28;20400;-85
2022/09/01 08:37:58;;;;;;;52.17;35.15;;;;;;;21.40;63.15;95027.03;5107808;27;20046;-85
2022/09/01 08:40:24;;;;;;;58.85;34.17;;;;;;;20.39;63.04;94854.03;5125705;27;20045;-85
2022/09/01 08:42:58;;;;;;;49.95;33.85;;;;;;;21.72;62.58;95033.25;5100203;28;20614;-85
2022/09/01 08:45:30;;;;;;;50.30;30.00;;;;;;;21.86;61.98;95039.00;5099067;27;20043;-85
2022/09/01 08:48:06;;;;;;;54.50;32.35;;;;;;;21.55;61.67;94972.28;5117504;27;20154;-85
2022/09/01 08:50:34;;;;;;;50.95;32.80;;;;;;;21.77;61.27;95000.59;5087963;27;20572;-85
2022/09/01 08:53:20;;;;;;;54.17;31.73;;;;;;;21.81;61.11;95016.88;5120657;27;20505;-85
2022/09/01 08:55:51;;;;;;;52.38;31.23;;;;;;;21.59;60.45;94952.72;5096177;28;20113;-85
2022/09/01 08:58:17;;;;;;;48.35;29.77;;;;;;;21.64;59.92;94955.16;5119752;27;20476;-85
2022/09/01 09:00:50;;;;;;;44.25;28.08;;;;;;;22.10;59.48;95019.16;5113499;27;20039;-86
2022/09/01 09:03:34;;;;;;;41.78;26.70;;;;;;;22.11;59.64;95015.34;5097413;28;20524;-85
2022/09/01 09:06:23;;;;;;;41.97;26.80;;;;;;;22.08;59.12;94980.91;5097110;27;20615;-85
2022/09/01 09:08:58;;;;;;;33.72;25.25;;;;;;;22.31;58.84;95003.44;5117288;27;20030;-84
2022/09/01 09:11:24;;;;;;;41.80;24.42;;;;;;;22.44;58.00;95003.31;5116606;27;20031;-85
2022/09/01 09:14:12;;;;;;;35.72;22.38;;;;;;;22.56;57.87;94997.81;5114571;27;20042;-85
2022/09/01 09:16:47;;;;;;;42.25;23.02;;;;;;;22.57;57.26;95005.56;5102949;27;20038;-86
2022/09/01 09:19:21;;;;;;;38.72;22.10;;;;;;;22.71;57.23;94992.34;5104171;28;20458;-85
2022/09/01 09:21:49;;;;;;;31.30;20.08;;;;;;;22.22;57.15;94905.59;5111488;27;20031;-86
2022/09/01 09:24:47;;;;;;;25.63;18.88;;;;;;;22.90;56.45;94991.59;5111199;27;20472;-86
2022/09/01 09:27:25;;;;;;;31.10;18.98;;;;;;;23.02;55.92;94991.47;5106155;27;20408;-86
2022/09/01 09:30:08;;;;;;;30.05;19.65;;;;;;;22.26;55.84;94857.88;5115466;27;20045;-84
2022/09/01 09:33:03;;;;;;;36.83;19.77;;;;;;;22.98;55.76;94957.38;5117237;27;20026;-85
2022/09/01 09:35:36;;;;;;;35.22;18.67;;;;;;;22.41;54.75;94850.81;5124698;27;20550;-85
2022/09/01 09:38:30;;;;;;;30.30;15.88;;;;;;;23.35;53.86;94987.41;5126999;27;20041;-84
2022/09/01 09:41:16;;;;;;;28.83;19.05;;;;;;;23.32;54.78;94977.34;5102926;27;20359;-85
2022/09/01 09:43:57;;;;;;;50.28;23.17;;;;;;;23.18;55.07;94950.03;5095826;27;20473;-85
2022/09/01 09:46:31;;;;;;;40.53;20.45;;;;;;;23.47;54.43;94977.22;5132646;27;20026;-85
2022/09/01 09:49:06;;;;;;;35.60;19.30;;;;;;;23.58;54.63;94979.34;5102096;27;20039;-85
2022/09/01 09:51:32;;;;;;;28.08;19.05;;;;;;;23.57;53.87;94954.25;5113021;27;20141;-85
2022/09/01 09:54:31;;;;;;;29.85;17.70;;;;;;;23.46;53.39;94904.50;5105910;27;20174;-85
2022/09/01 09:57:16;;;;;;;27.73;16.63;;;;;;;24.35;52.85;94963.56;5099472;27;20413;-85
2022/09/01 09:59:48;;;;;;;27.08;17.17;;;;;;;25.16;51.18;94963.06;5098114;27;20415;-85
2022/09/01 10:02:35;;;;;;;22.20;15.20;;;;;;;26.19;47.26;94959.34;5121798;27;20562;-84
2022/09/01 10:05:40;;;;;;;22.42;13.68;;;;;;;26.92;45.01;94899.56;5137950;27;20576;-85
2022/09/01 10:08:36;;;;;;;21.88;13.30;;;;;;;28.37;42.94;94963.16;5105368;27;20047;-84
2022/09/01 10:11:03;;;;;;;27.50;12.98;;;;;;;28.62;40.56;94888.66;5110639;27;20041;-85
2022/09/01 10:13:30;;;;;;;21.98;12.50;;;;;;;29.89;38.11;94964.47;5114275;27;20031;-85
2022/09/01 10:16:00;;;;;;;25.60;11.93;;;;;;;30.48;35.74;94920.56;5099414;27;20038;-84
2022/09/01 10:18:33;;;;;;;19.27;9.70;;;;;;;31.36;34.24;94953.59;5095782;27;20050;-85
2022/09/01 10:21:15;;;;;;;19.92;10.18;;;;;;;31.94;32.92;94952.38;5096166;27;20043;-85
2022/09/01 10:23:42;;;;;;;19.20;10.98;;;;;;;32.23;32.33;94933.50;5105189;27;20039;-85
2022/09/01 10:26:23;;;;;;;19.42;11.10;;;;;;;32.16;32.31;94948.13;5103772;27;20070;-85
2022/09/01 10:28:56;;;;;;;20.48;10.40;;;;;;;32.30;32.24;94921.63;5118592;27;20478;-86
2022/09/01 10:31:22;;;;;;;22.58;10.45;;;;;;;32.96;31.51;94938.03;5111971;27;20581;-85
2022/09/01 10:33:49;;;;;;;17.27;9.80;;;;;;;32.92;31.21;94866.72;5116188;27;20427;-85
2022/09/01 10:36:16;;;;;;;14.43;10.07;;;;;;;33.63;30.29;94936.63;5109655;27;20123;-86
2022/09/01 10:38:43;;;;;;;17.65;10.10;;;;;;;33.50;30.62;94938.47;5096141;27;20034;-84
2022/09/01 10:41:09;;;;;;;19.90;10.30;;;;;;;33.13;30.60;94933.38;5112739;27;20065;-84
2022/09/01 10:43:40;;;;;;;12.48;8.88;;;;;;;32.74;31.34;94934.16;5097603;27;20038;-85
2022/09/01 10:46:21;;;;;;;;;;;;;;;32.31;32.16;94934.94;5119151;27;20508;-85
2022/09/01 10:48:49;;;;;;;16.95;9.50;;;;;;;31.55;32.45;94859.75;5110084;27;19966;-85
2022/09/01 10:51:15;;;;;;;15.05;9.52;;;;;;;31.65;33.14;94926.59;5136035;27;20130;-85
2022/09/01 10:53:45;;;;;;;14.10;9.10;;;;;;;31.26;33.65;94929.88;5086862;27;20533;-85
2022/09/01 10:56:34;;;;;;;22.05;9.90;;;;;;;30.47;34.04;94844.38;5122691;27;20445;-85
2022/09/01 10:59:25;;;;;;;14.63;9.60;;;;;;;30.74;34.49;94929.31;5097019;27;20065;-85
2022/09/01 11:01:51;;;;;;;14.20;9.88;;;;;;;30.47;34.93;94924.50;5095499;27;20055;-84
2022/09/01 11:04:23;;;;;;;17.77;9.95;;;;;;;30.42;35.90;94921.44;5104224;27;20043;-85
2022/09/01 11:07:05;;;;;;;18.27;10.38;;;;;;;30.51;36.03;94916.28;5119472;27;20077;-85
2022/09/01 11:09:44;;;;;;;26.15;9.88;;;;;;;30.31;36.24;94834.78;5096330;28;20370;-85
2022/09/01 11:12:38;;;;;;;15.95;10.10;;;;;;;31.23;35.58;94909.56;5096750;27;20050;-84
2022/09/01 11:15:35;;;;;;;19.00;10.77;;;;;;;31.39;34.01;94863.13;5098289;27;20030;-85
2022/09/01 11:18:02;;;;;;;19.65;10.70;;;;;;;32.10;33.95;94907.84;5106671;27;20117;-84
2022/09/01 11:20:27;;;;;;;19.27;10.10;;;;;;;32.38;32.93;94901.09;5095066;27;20134;-85
2022/09/01 11:22:55;;;;;;;21.02;10.95;;;;;;;31.96;32.07;94859.50;5101751;27;20129;-85
2022/09/01 11:25:36;;;;;;;20.30;10.75;;;;;;;32.63;31.83;94884.94;5125435;27;20027;-85
2022/09/01 11:28:14;;;;;;;22.30;10.73;;;;;;;32.50;32.41;94898.50;5127289;27;20519;-85
2022/09/01 11:30:54;;;;;;;19.15;10.25;;;;;;;32.56;32.32;94890.56;5118862;27;20099;-85
2022/09/01 11:33:52;;;;;;;17.77;10.73;;;;;;;32.47;32.93;94890.34;5109001;27;20031;-85
2022/09/01 11:36:46;;;;;;;14.43;9.10;;;;;;;32.89;31.71;94883.25;5117697;27;20034;-85